Naples Municipal Airport
KAPF : now visible

Airfield :











YOU CAN JOIN US ON...

 
LOGIN :

Register | Disclaimer

   EN    FR    IT 

 









Legend :    VFR   Marginal VFR   IFR   Intensive IFR   Very Intensive IFR
Visi :
Ceiling :
>= 8 km
>= 3000ft
5 to 8 km
1000 to 3000 ft
1500m to 5 km
500 to 1000 ft
800 to 1500m
200 to 500 ft
< 800m
< 200 ft
Symbols :   Thunderstorms  Fog  Heavy snow  Heavy precipitations  Wind > 20 kt






- Airport Elevation : 8 ft


KAPF - Naples Municipal

CURRENT METAR :
  • 141553Z 10011G20KT 10SM CLR 28/21 A3005 RMK AO2 SLP176 T02780206

EXPIRED METARs :
  • 141353Z 09010KT 10SM CLR 26/21 A3006 RMK AO2 SLP178 T02560206

TAF KAPF
Valid from the 14 at 15:00 until the 15 at 12:00 UTC


141518Z 1415/1512 10012KT P6SM SCT020 BKN040
FM141800 12009KT P6SM VCSH SCT025 BKN050 BKN100
FM150000 VRB04KT P6SM SCT030 BKN100



MET'MAP, your aeronautical weather chart ! - Copyright ORBIFLY December 2007 - Disclaimer

ORBIFLY MET'MAP TEAM :

Programming & Development : Alexandra Zaïnal
Concept & Development : Baudouin d'Aumeries
Co-Development & Prog : Marc-Olivier Méhu
Technical & hardware support : Manuel Goepfert

Contact : metmap@orbifly.com




SOURCES & CREDITS :

   NOAA       Earth
Advisory